Latest Coastal Weather Observations for Darwin Harbour

IDD60701

Issued at 5:31 pm CST Sunday 30 August 2015 (issued every 10 minutes, with the page automatically refreshed every 10 minutes)

About coastal observations | Map of coastal stations | Coastal observations for NT | Marine services | Other Formats
Station Details ID: 014072 Name: DARWIN NTC AWS Lat: -12.47 Lon: 130.85 Height: 0.0 m
Data from the previous 72 hours. | See also: Recent months for locations in Northern Territory
Date/Time
CST
Temp

°C
Wind Pressure Rain
since 9am
mm
Weather Cloud Vis
km
Sea
Height
m
Swell
Dir
 
Speed
knots
Gust
knots
hPa Trend Height
m
Period
s
Dir
30/05:30pm 28.0 WNW 9 14 1012.0 - - - - - - - - -
30/05:00pm 28.0 WNW 8 14 1011.8 - - - - - - - - -
30/04:30pm 27.9 WNW 9 15 1011.6 - - - - - - - - -
30/04:00pm 28.1 NW 8 18 1011.5 - - - - - - - - -
30/03:30pm 29.5 N 6 12 1011.5 - - - - - - - - -
30/03:00pm 29.4 N 8 13 1011.9 - - - - - - - - -
30/02:30pm 28.3 N 10 15 1012.3 - - - - - - - - -
30/02:00pm 28.7 NNW 8 13 1012.8 - - - - - - - - -
30/01:30pm 28.3 NW 8 14 1013.3 - - - - - - - - -
30/01:00pm 27.8 NW 8 12 1013.7 - - - - - - - - -
30/12:30pm 27.3 W 6 9 1014.1 - - - - - - - - -
30/12:00pm 26.9 W 6 8 1014.8 - - - - - - - - -
30/11:30am 26.9 W 5 6 1015.4 - - - - - - - - -
30/11:00am 26.8 S 4 5 1015.8 - - - - - - - - -
30/10:30am 26.6 SSW 3 4 1016.0 - - - - - - - - -
30/10:00am 26.6 SSE 3 5 1016.2 - - - - - - - - -
30/09:30am 26.4 ESE 4 6 1016.0 - - - - - - - - -
30/09:00am 26.4 E 5 7 1015.9 - - - - - - - - -
30/08:30am 25.7 NE 3 5 1015.6 - - - - - - - - -
30/08:00am 24.9 ENE 3 6 1015.3 - - - - - - - - -
30/07:30am 24.8 ENE 3 6 1014.8 - - - - - - - - -
30/07:00am 24.6 ENE 2 4 1014.4 - - - - - - - - -
30/06:30am 24.5 NE 3 5 1013.9 - - - - - - - - -
30/06:00am 24.4 NE 3 6 1013.8 - - - - - - - - -
30/05:30am 25.4 ENE 3 4 1013.6 - - - - - - - - -
30/05:00am 25.1 ENE 4 6 1013.6 - - - - - - - - -
30/04:30am 25.3 ENE 2 5 1013.3 - - - - - - - - -
30/04:00am 25.9 N 1 2 1013.3 - - - - - - - - -
30/03:30am 25.5 WSW 2 4 1013.3 - - - - - - - - -
30/03:00am 25.4 SW 5 6 1013.4 - - - - - - - - -
30/02:30am 25.3 SW 5 7 1013.7 - - - - - - - - -
30/02:00am 25.4 SW 7 8 1013.9 - - - - - - - - -
30/01:30am 25.4 SW 8 10 1014.1 - - - - - - - - -
30/01:00am 25.5 SW 8 10 1014.6 - - - - - - - - -
30/12:30am 25.4 WNW 6 8 1014.7 - - - - - - - - -
30/12:00am 26.6 WNW 8 11 1014.5 - - - - - - - - -
 
Date/Time
CST
Temp

°C
Wind Pressure Rain
since 9am
mm
Weather Cloud Vis
km
Sea
Height
m
Swell
Dir
 
Speed
knots
Gust
knots
hPa Trend Height
m
Period
s
Dir
29/11:30pm 26.8 WNW 7 11 1014.5 - - - - - - - - -
29/11:00pm 26.5 NW 8 13 1014.4 - - - - - - - - -
29/10:30pm 26.6 NW 6 11 1014.5 - - - - - - - - -
29/10:00pm 27.0 NW 5 10 1014.4 - - - - - - - - -
29/09:30pm 27.0 NE 3 6 1014.3 - - - - - - - - -
29/09:00pm 27.1 ENE 3 4 1014.0 - - - - - - - - -
29/08:30pm 27.2 NE 3 6 1013.7 - - - - - - - - -
29/08:00pm 27.5 NNE 3 7 1013.4 - - - - - - - - -
29/07:30pm 27.6 N 6 9 1013.1 - - - - - - - - -
29/07:00pm 27.9 N 4 7 1012.6 - - - - - - - - -
29/06:30pm 29.0 N 5 11 1012.1 - - - - - - - - -
29/06:00pm 28.9 NNW 4 8 1012.0 - - - - - - - - -
29/05:30pm 28.5 NW 3 7 1011.9 - - - - - - - - -
29/05:00pm 28.2 WNW 6 12 1011.8 - - - - - - - - -
29/04:30pm 28.0 NW 6 12 1011.8 - - - - - - - - -
29/04:00pm 28.4 NNE 7 14 1011.8 - - - - - - - - -
29/03:30pm 28.6 N 9 15 1011.9 - - - - - - - - -
29/03:00pm 28.8 NW 7 13 1012.5 - - - - - - - - -
29/02:30pm 27.9 NW 9 17 1012.7 - - - - - - - - -
29/02:00pm 30.0 W 3 9 1013.0 - - - - - - - - -
29/01:30pm 28.8 W 6 10 1013.7 - - - - - - - - -
29/01:00pm 28.8 W 6 10 1014.2 - - - - - - - - -
29/12:30pm 27.6 W 6 9 1014.7 - - - - - - - - -
29/12:00pm 26.6 W 7 11 1015.2 - - - - - - - - -
29/11:30am 27.3 W 5 8 1015.7 - - - - - - - - -
29/11:00am 26.3 W 4 5 1016.2 - - - - - - - - -
29/10:30am 27.0 WNW 1 3 1016.4 - - - - - - - - -
29/10:00am 26.3 W 1 3 1016.5 - - - - - - - - -
29/09:30am 25.4 W 1 3 1016.5 - - - - - - - - -
29/09:00am 25.1 W 3 5 1016.2 - - - - - - - - -
29/08:30am 25.6 WNW 1 2 1016.0 - - - - - - - - -
29/08:00am 25.1 W 2 4 1015.7 - - - - - - - - -
29/07:30am 24.7 E 3 4 1015.5 - - - - - - - - -
29/07:00am 24.4 ENE 1 4 1015.0 - - - - - - - - -
29/06:30am 24.3 NE 3 5 1014.5 - - - - - - - - -
29/06:00am 24.0 NE 5 8 1014.0 - - - - - - - - -
29/05:30am 23.7 NE 4 8 1013.9 - - - - - - - - -
29/05:00am 24.0 ENE 3 7 1013.7 - - - - - - - - -
29/04:30am 24.4 ENE 6 10 1013.7 - - - - - - - - -
29/04:00am 24.4 ENE 3 5 1013.7 - - - - - - - - -
29/03:30am 24.8 ENE 4 7 1013.7 - - - - - - - - -
29/03:00am 25.0 E 5 6 1013.8 - - - - - - - - -
29/02:30am 25.2 E 5 7 1014.0 - - - - - - - - -
29/02:00am 25.3 ESE 4 5 1014.2 - - - - - - - - -
29/01:30am 25.2 SE 3 5 1014.4 - - - - - - - - -
29/01:00am 25.3 SSE 4 5 1014.5 - - - - - - - - -
29/12:30am 25.3 S 4 6 1014.9 - - - - - - - - -
29/12:00am 25.6 SW 4 5 1014.9 - - - - - - - - -
 
Date/Time
CST
Temp

°C
Wind Pressure Rain
since 9am
mm
Weather Cloud Vis
km
Sea
Height
m
Swell
Dir
 
Speed
knots
Gust
knots
hPa Trend Height
m
Period
s
Dir
28/11:30pm 26.0 SSW 5 6 1014.8 - - - - - - - - -
28/11:00pm 26.3 SSW 6 7 1014.6 - - - - - - - - -
28/10:30pm 26.8 SSW 4 5 1014.4 - - - - - - - - -
28/10:00pm 27.4 E 1 2 1014.2 - - - - - - - - -
28/09:30pm 27.6 E 1 3 1014.0 - - - - - - - - -
28/09:00pm 27.9 NE 2 3 1013.8 - - - - - - - - -
28/08:30pm 28.3 N 2 5 1013.5 - - - - - - - - -
28/08:00pm 28.1 NW 2 3 1013.2 - - - - - - - - -
28/07:30pm 28.8 NNW 2 3 1012.7 - - - - - - - - -
28/07:00pm 29.0 NNE 4 8 1012.1 - - - - - - - - -
28/06:30pm 29.4 NE 6 11 1011.6 - - - - - - - - -
28/06:00pm 29.8 NE 7 15 1011.2 - - - - - - - - -
28/05:30pm 29.9 NNE 9 15 1010.9 - - - - - - - - -
28/05:00pm 30.1 NNE 8 18 1010.8 - - - - - - - - -
28/04:30pm 29.9 NNE 11 18 1010.8 - - - - - - - - -
28/04:00pm 29.9 NE 10 17 1010.9 - - - - - - - - -
28/03:30pm 30.3 NNE 7 14 1011.1 - - - - - - - - -
28/03:00pm 28.9 NNW 10 17 1011.6 - - - - - - - - -
28/02:30pm 29.1 NNW 8 14 1012.2 - - - - - - - - -
28/02:00pm 29.1 NW 8 15 1012.5 - - - - - - - - -
28/01:30pm 28.3 NW 9 17 1012.9 - - - - - - - - -
28/01:00pm 30.7 ENE 9 14 1013.4 - - - - - - - - -
28/12:30pm 30.4 E 12 15 1013.9 - - - - - - - - -
28/12:00pm 28.4 SSE 3 6 1014.8 - - - - - - - - -
28/11:30am 27.3 SSE 5 7 1015.3 - - - - - - - - -
28/11:00am 27.3 SSE 4 6 1015.8 - - - - - - - - -
28/10:30am 26.8 SE 5 7 1016.1 - - - - - - - - -
28/10:00am 27.2 E 6 8 1016.3 - - - - - - - - -
28/09:30am 26.6 E 7 10 1016.2 - - - - - - - - -
28/09:00am 25.5 E 5 7 1016.0 - - - - - - - - -
28/08:30am 25.3 E 5 7 1015.9 - - - - - - - - -
28/08:00am 25.0 E 6 8 1015.6 - - - - - - - - -
28/07:30am 24.7 E 6 8 1015.1 - - - - - - - - -
28/07:00am 24.6 E 5 6 1014.9 - - - - - - - - -
28/06:30am 24.6 ENE 5 7 1014.5 - - - - - - - - -
28/06:00am 24.7 ENE 3 7 1014.0 - - - - - - - - -
28/05:30am 25.2 E 3 4 1013.8 - - - - - - - - -
28/05:00am 24.9 E 5 7 1013.8 - - - - - - - - -
28/04:30am 24.8 E 6 8 1013.8 - - - - - - - - -
28/04:00am 25.0 ENE 4 7 1013.8 - - - - - - - - -
28/03:30am 25.1 ENE 3 6 1013.8 - - - - - - - - -
28/03:00am 25.6 NE 2 4 1013.9 - - - - - - - - -
28/02:30am 25.8 N 1 2 1014.1 - - - - - - - - -
28/02:00am 25.8 W 2 4 1014.2 - - - - - - - - -
28/01:30am 25.8 W 5 6 1014.3 - - - - - - - - -
28/01:00am 25.8 W 4 5 1014.5 - - - - - - - - -
28/12:30am 25.9 W 5 7 1014.7 - - - - - - - - -
28/12:00am 26.1 WNW 7 11 1014.6 - - - - - - - - -
 
Date/Time
CST
Temp

°C
Wind Pressure Rain
since 9am
mm
Weather Cloud Vis
km
Sea
Height
m
Swell
Dir
 
Speed
knots
Gust
knots
hPa Trend Height
m
Period
s
Dir
27/11:30pm 26.1 WNW 7 12 1014.7 - - - - - - - - -
27/11:00pm 26.3 WNW 9 14 1014.7 - - - - - - - - -
27/10:30pm 26.8 NW 6 10 1014.6 - - - - - - - - -
27/10:00pm 26.6 NW 5 9 1014.6 - - - - - - - - -
27/09:30pm 26.6 NW 5 8 1014.3 - - - - - - - - -
27/09:00pm 27.5 N 2 4 1014.0 - - - - - - - - -
27/08:30pm 27.2 E 2 2 1013.7 - - - - - - - - -
27/08:00pm 27.4 NE 4 7 1013.3 - - - - - - - - -
27/07:30pm 27.5 NE 4 10 1012.7 - - - - - - - - -
27/07:00pm 27.7 NE 6 13 1012.4 - - - - - - - - -
27/06:30pm 28.0 NNE 8 16 1011.9 - - - - - - - - -
27/06:00pm 28.4 NNE 8 14 1011.5 - - - - - - - - -

Other Formats:

Comma delimited format used in spreadsheet applications
http://www.bom.gov.au/fwo/IDD60701/IDD60701.95122.axf

JavaScript Object Notation format (JSON) in row-major order
http://www.bom.gov.au/fwo/IDD60701/IDD60701.95122.json